sensor_id;sensor_type;location;lat;lon;timestamp;P1;durP1;ratioP1;P2;durP2;ratioP2
18875;SDS011;9570;50.854;13.778;2023-03-20T00:01:14;3.43;;;1.97;;
18875;SDS011;9570;50.854;13.778;2023-03-20T00:03:41;2.40;;;1.83;;
18875;SDS011;9570;50.854;13.778;2023-03-20T00:06:11;3.13;;;2.10;;
18875;SDS011;9570;50.854;13.778;2023-03-20T00:08:45;6.27;;;1.90;;
18875;SDS011;9570;50.854;13.778;2023-03-20T00:14:22;6.70;;;2.17;;
18875;SDS011;9570;50.854;13.778;2023-03-20T00:16:48;3.30;;;1.90;;
18875;SDS011;9570;50.854;13.778;2023-03-20T00:21:42;3.50;;;2.00;;
18875;SDS011;9570;50.854;13.778;2023-03-20T00:24:09;2.80;;;2.03;;
18875;SDS011;9570;50.854;13.778;2023-03-20T00:26:35;3.57;;;2.13;;
18875;SDS011;9570;50.854;13.778;2023-03-20T00:29:02;4.10;;;2.77;;
18875;SDS011;9570;50.854;13.778;2023-03-20T00:31:29;4.40;;;2.13;;
18875;SDS011;9570;50.854;13.778;2023-03-20T00:34:05;3.13;;;2.07;;
18875;SDS011;9570;50.854;13.778;2023-03-20T00:36:35;4.33;;;2.10;;
18875;SDS011;9570;50.854;13.778;2023-03-20T00:39:01;2.30;;;2.10;;
18875;SDS011;9570;50.854;13.778;2023-03-20T00:43:59;2.77;;;2.10;;
18875;SDS011;9570;50.854;13.778;2023-03-20T00:46:44;3.03;;;2.00;;
18875;SDS011;9570;50.854;13.778;2023-03-20T00:49:14;4.83;;;2.47;;
18875;SDS011;9570;50.854;13.778;2023-03-20T00:51:40;4.97;;;2.17;;
18875;SDS011;9570;50.854;13.778;2023-03-20T00:54:13;4.03;;;2.30;;
18875;SDS011;9570;50.854;13.778;2023-03-20T00:56:41;2.87;;;2.00;;
18875;SDS011;9570;50.854;13.778;2023-03-20T00:59:13;3.60;;;2.10;;
18875;SDS011;9570;50.854;13.778;2023-03-20T01:01:43;2.30;;;1.80;;
18875;SDS011;9570;50.854;13.778;2023-03-20T01:04:12;3.03;;;1.70;;
18875;SDS011;9570;50.854;13.778;2023-03-20T01:06:40;2.67;;;2.07;;
18875;SDS011;9570;50.854;13.778;2023-03-20T01:09:06;2.97;;;2.10;;
18875;SDS011;9570;50.854;13.778;2023-03-20T01:11:31;2.80;;;2.10;;
18875;SDS011;9570;50.854;13.778;2023-03-20T01:13:57;2.13;;;1.90;;
18875;SDS011;9570;50.854;13.778;2023-03-20T01:16:23;4.10;;;1.87;;
18875;SDS011;9570;50.854;13.778;2023-03-20T01:18:51;2.93;;;1.93;;
18875;SDS011;9570;50.854;13.778;2023-03-20T01:21:17;2.43;;;1.93;;
18875;SDS011;9570;50.854;13.778;2023-03-20T01:23:44;2.13;;;1.70;;
18875;SDS011;9570;50.854;13.778;2023-03-20T01:29:00;3.30;;;1.77;;
18875;SDS011;9570;50.854;13.778;2023-03-20T01:31:26;4.70;;;1.77;;
18875;SDS011;9570;50.854;13.778;2023-03-20T01:33:51;2.70;;;1.70;;
18875;SDS011;9570;50.854;13.778;2023-03-20T01:36:19;3.33;;;2.07;;
18875;SDS011;9570;50.854;13.778;2023-03-20T01:38:49;3.13;;;2.03;;
18875;SDS011;9570;50.854;13.778;2023-03-20T01:41:18;2.67;;;1.80;;
18875;SDS011;9570;50.854;13.778;2023-03-20T01:43:45;2.27;;;1.93;;
18875;SDS011;9570;50.854;13.778;2023-03-20T01:51:14;4.47;;;1.80;;
18875;SDS011;9570;50.854;13.778;2023-03-20T01:53:42;3.80;;;1.50;;
18875;SDS011;9570;50.854;13.778;2023-03-20T01:56:11;2.63;;;1.67;;
18875;SDS011;9570;50.854;13.778;2023-03-20T01:58:40;1.70;;;1.60;;
18875;SDS011;9570;50.854;13.778;2023-03-20T02:01:09;3.90;;;1.60;;
18875;SDS011;9570;50.854;13.778;2023-03-20T02:03:37;2.60;;;1.77;;
18875;SDS011;9570;50.854;13.778;2023-03-20T02:06:06;3.63;;;1.80;;
18875;SDS011;9570;50.854;13.778;2023-03-20T02:08:33;2.57;;;1.90;;
18875;SDS011;9570;50.854;13.778;2023-03-20T02:11:05;3.50;;;1.50;;
18875;SDS011;9570;50.854;13.778;2023-03-20T02:13:32;1.83;;;1.47;;
18875;SDS011;9570;50.854;13.778;2023-03-20T02:16:05;2.63;;;1.80;;
18875;SDS011;9570;50.854;13.778;2023-03-20T02:18:34;3.80;;;1.80;;
18875;SDS011;9570;50.854;13.778;2023-03-20T02:29:18;1.90;;;1.63;;
18875;SDS011;9570;50.854;13.778;2023-03-20T02:35:10;2.90;;;1.90;;
18875;SDS011;9570;50.854;13.778;2023-03-20T02:37:52;2.40;;;2.00;;
18875;SDS011;9570;50.854;13.778;2023-03-20T02:40:51;1.60;;;1.50;;
18875;SDS011;9570;50.854;13.778;2023-03-20T02:46:10;1.70;;;1.60;;
18875;SDS011;9570;50.854;13.778;2023-03-20T02:48:45;3.30;;;1.70;;
18875;SDS011;9570;50.854;13.778;2023-03-20T02:51:41;2.30;;;1.80;;
18875;SDS011;9570;50.854;13.778;2023-03-20T02:54:43;2.10;;;1.70;;
18875;SDS011;9570;50.854;13.778;2023-03-20T02:57:33;2.70;;;1.70;;
18875;SDS011;9570;50.854;13.778;2023-03-20T03:00:18;2.47;;;1.60;;
18875;SDS011;9570;50.854;13.778;2023-03-20T03:02:59;2.43;;;1.67;;
18875;SDS011;9570;50.854;13.778;2023-03-20T03:05:53;2.03;;;1.60;;
18875;SDS011;9570;50.854;13.778;2023-03-20T03:08:22;4.27;;;1.90;;
18875;SDS011;9570;50.854;13.778;2023-03-20T03:10:53;4.13;;;1.67;;
18875;SDS011;9570;50.854;13.778;2023-03-20T03:13:30;3.63;;;1.80;;
18875;SDS011;9570;50.854;13.778;2023-03-20T03:15:59;2.53;;;1.60;;
18875;SDS011;9570;50.854;13.778;2023-03-20T03:18:38;2.70;;;1.57;;
18875;SDS011;9570;50.854;13.778;2023-03-20T03:21:06;3.10;;;1.70;;
18875;SDS011;9570;50.854;13.778;2023-03-20T03:23:38;3.30;;;2.00;;
18875;SDS011;9570;50.854;13.778;2023-03-20T03:26:08;1.87;;;1.60;;
18875;SDS011;9570;50.854;13.778;2023-03-20T03:28:43;2.93;;;1.60;;
18875;SDS011;9570;50.854;13.778;2023-03-20T03:31:13;2.47;;;1.60;;
18875;SDS011;9570;50.854;13.778;2023-03-20T03:33:42;3.07;;;2.13;;
18875;SDS011;9570;50.854;13.778;2023-03-20T03:38:41;2.13;;;1.73;;
18875;SDS011;9570;50.854;13.778;2023-03-20T03:44:11;2.90;;;2.10;;
18875;SDS011;9570;50.854;13.778;2023-03-20T03:46:51;2.33;;;1.77;;
18875;SDS011;9570;50.854;13.778;2023-03-20T03:49:33;2.23;;;1.90;;
18875;SDS011;9570;50.854;13.778;2023-03-20T03:52:07;1.73;;;1.53;;
18875;SDS011;9570;50.854;13.778;2023-03-20T03:54:38;1.60;;;1.50;;
18875;SDS011;9570;50.854;13.778;2023-03-20T03:57:08;1.50;;;1.40;;
18875;SDS011;9570;50.854;13.778;2023-03-20T03:59:38;2.93;;;1.77;;
18875;SDS011;9570;50.854;13.778;2023-03-20T04:02:07;2.57;;;1.40;;
18875;SDS011;9570;50.854;13.778;2023-03-20T04:04:34;2.30;;;1.60;;
18875;SDS011;9570;50.854;13.778;2023-03-20T04:07:03;2.07;;;1.53;;
18875;SDS011;9570;50.854;13.778;2023-03-20T04:09:28;2.10;;;1.70;;
18875;SDS011;9570;50.854;13.778;2023-03-20T04:11:54;3.33;;;2.00;;
18875;SDS011;9570;50.854;13.778;2023-03-20T04:14:19;2.60;;;1.70;;
18875;SDS011;9570;50.854;13.778;2023-03-20T04:16:45;2.20;;;1.57;;
18875;SDS011;9570;50.854;13.778;2023-03-20T04:19:11;3.07;;;1.57;;
18875;SDS011;9570;50.854;13.778;2023-03-20T04:21:36;2.23;;;1.60;;
18875;SDS011;9570;50.854;13.778;2023-03-20T04:24:02;5.43;;;2.10;;
18875;SDS011;9570;50.854;13.778;2023-03-20T04:26:27;1.93;;;1.53;;
18875;SDS011;9570;50.854;13.778;2023-03-20T04:28:53;2.43;;;1.50;;
18875;SDS011;9570;50.854;13.778;2023-03-20T04:31:18;3.37;;;2.10;;
18875;SDS011;9570;50.854;13.778;2023-03-20T04:33:44;1.47;;;1.37;;
18875;SDS011;9570;50.854;13.778;2023-03-20T04:36:10;2.57;;;1.80;;
18875;SDS011;9570;50.854;13.778;2023-03-20T04:38:36;2.20;;;1.50;;
18875;SDS011;9570;50.854;13.778;2023-03-20T04:41:02;3.40;;;1.87;;
18875;SDS011;9570;50.854;13.778;2023-03-20T04:43:28;4.07;;;1.70;;
18875;SDS011;9570;50.854;13.778;2023-03-20T04:45:54;1.63;;;1.53;;
18875;SDS011;9570;50.854;13.778;2023-03-20T04:48:19;1.87;;;1.70;;
18875;SDS011;9570;50.854;13.778;2023-03-20T04:50:45;2.40;;;1.63;;
18875;SDS011;9570;50.854;13.778;2023-03-20T04:53:12;3.30;;;1.60;;
18875;SDS011;9570;50.854;13.778;2023-03-20T04:55:38;1.60;;;1.50;;
18875;SDS011;9570;50.854;13.778;2023-03-20T04:58:04;2.73;;;1.40;;
18875;SDS011;9570;50.854;13.778;2023-03-20T05:00:30;3.50;;;1.80;;
18875;SDS011;9570;50.854;13.778;2023-03-20T05:02:56;1.73;;;1.63;;
18875;SDS011;9570;50.854;13.778;2023-03-20T05:05:22;1.90;;;1.47;;
18875;SDS011;9570;50.854;13.778;2023-03-20T05:07:47;2.77;;;1.90;;
18875;SDS011;9570;50.854;13.778;2023-03-20T05:10:13;3.03;;;1.80;;
18875;SDS011;9570;50.854;13.778;2023-03-20T05:12:38;2.20;;;1.57;;
18875;SDS011;9570;50.854;13.778;2023-03-20T05:15:04;2.23;;;1.73;;
18875;SDS011;9570;50.854;13.778;2023-03-20T05:17:30;3.33;;;2.23;;
18875;SDS011;9570;50.854;13.778;2023-03-20T05:19:55;2.20;;;1.70;;
18875;SDS011;9570;50.854;13.778;2023-03-20T05:22:21;2.67;;;1.63;;
18875;SDS011;9570;50.854;13.778;2023-03-20T05:24:46;3.10;;;1.50;;
18875;SDS011;9570;50.854;13.778;2023-03-20T05:27:12;3.67;;;1.70;;
18875;SDS011;9570;50.854;13.778;2023-03-20T05:29:37;1.90;;;1.70;;
18875;SDS011;9570;50.854;13.778;2023-03-20T05:32:03;2.47;;;1.83;;
18875;SDS011;9570;50.854;13.778;2023-03-20T05:34:28;2.63;;;1.97;;
18875;SDS011;9570;50.854;13.778;2023-03-20T05:36:54;1.77;;;1.67;;
18875;SDS011;9570;50.854;13.778;2023-03-20T05:39:19;2.40;;;1.90;;
18875;SDS011;9570;50.854;13.778;2023-03-20T05:41:46;2.60;;;1.97;;
18875;SDS011;9570;50.854;13.778;2023-03-20T05:44:11;3.70;;;2.00;;
18875;SDS011;9570;50.854;13.778;2023-03-20T05:46:37;3.40;;;2.00;;
18875;SDS011;9570;50.854;13.778;2023-03-20T05:49:02;4.20;;;2.30;;
18875;SDS011;9570;50.854;13.778;2023-03-20T05:51:28;3.37;;;2.20;;
18875;SDS011;9570;50.854;13.778;2023-03-20T05:53:53;3.30;;;2.10;;
18875;SDS011;9570;50.854;13.778;2023-03-20T05:56:19;2.83;;;1.97;;
18875;SDS011;9570;50.854;13.778;2023-03-20T05:58:45;3.87;;;2.33;;
18875;SDS011;9570;50.854;13.778;2023-03-20T06:01:10;4.30;;;2.00;;
18875;SDS011;9570;50.854;13.778;2023-03-20T06:03:35;4.00;;;2.40;;
18875;SDS011;9570;50.854;13.778;2023-03-20T06:06:01;4.63;;;2.10;;
18875;SDS011;9570;50.854;13.778;2023-03-20T06:08:27;4.00;;;2.10;;
18875;SDS011;9570;50.854;13.778;2023-03-20T06:10:54;2.50;;;2.23;;
18875;SDS011;9570;50.854;13.778;2023-03-20T06:13:20;2.27;;;2.07;;
18875;SDS011;9570;50.854;13.778;2023-03-20T06:15:45;3.43;;;2.27;;
18875;SDS011;9570;50.854;13.778;2023-03-20T06:18:11;3.63;;;2.50;;
18875;SDS011;9570;50.854;13.778;2023-03-20T06:20:36;2.73;;;2.17;;
18875;SDS011;9570;50.854;13.778;2023-03-20T06:23:02;2.60;;;2.13;;
18875;SDS011;9570;50.854;13.778;2023-03-20T06:25:27;4.87;;;2.57;;
18875;SDS011;9570;50.854;13.778;2023-03-20T06:27:53;3.47;;;2.13;;
18875;SDS011;9570;50.854;13.778;2023-03-20T06:30:18;6.07;;;2.20;;
18875;SDS011;9570;50.854;13.778;2023-03-20T06:32:44;3.30;;;2.17;;
18875;SDS011;9570;50.854;13.778;2023-03-20T06:35:10;3.30;;;2.10;;
18875;SDS011;9570;50.854;13.778;2023-03-20T06:37:37;2.73;;;2.07;;
18875;SDS011;9570;50.854;13.778;2023-03-20T06:40:03;2.57;;;2.10;;
18875;SDS011;9570;50.854;13.778;2023-03-20T06:42:30;2.00;;;1.90;;
18875;SDS011;9570;50.854;13.778;2023-03-20T06:44:55;2.63;;;2.00;;
18875;SDS011;9570;50.854;13.778;2023-03-20T06:47:21;4.20;;;1.97;;
18875;SDS011;9570;50.854;13.778;2023-03-20T06:49:46;3.80;;;2.20;;
18875;SDS011;9570;50.854;13.778;2023-03-20T06:52:13;3.53;;;2.00;;
18875;SDS011;9570;50.854;13.778;2023-03-20T06:54:41;2.40;;;2.20;;
18875;SDS011;9570;50.854;13.778;2023-03-20T06:57:06;2.40;;;2.20;;
18875;SDS011;9570;50.854;13.778;2023-03-20T06:59:32;2.47;;;2.00;;
18875;SDS011;9570;50.854;13.778;2023-03-20T07:01:58;2.20;;;2.00;;
18875;SDS011;9570;50.854;13.778;2023-03-20T07:04:24;3.17;;;2.20;;
18875;SDS011;9570;50.854;13.778;2023-03-20T07:06:50;2.33;;;2.00;;
18875;SDS011;9570;50.854;13.778;2023-03-20T07:09:15;3.47;;;2.10;;
18875;SDS011;9570;50.854;13.778;2023-03-20T07:11:41;2.13;;;1.93;;
18875;SDS011;9570;50.854;13.778;2023-03-20T07:14:08;3.13;;;2.27;;
18875;SDS011;9570;50.854;13.778;2023-03-20T07:16:34;4.73;;;2.37;;
18875;SDS011;9570;50.854;13.778;2023-03-20T07:18:59;2.50;;;2.20;;
18875;SDS011;9570;50.854;13.778;2023-03-20T07:21:26;4.17;;;2.70;;
18875;SDS011;9570;50.854;13.778;2023-03-20T07:23:52;4.43;;;2.40;;
18875;SDS011;9570;50.854;13.778;2023-03-20T07:26:17;3.43;;;2.30;;
18875;SDS011;9570;50.854;13.778;2023-03-20T07:28:43;2.77;;;2.40;;
18875;SDS011;9570;50.854;13.778;2023-03-20T07:31:12;3.77;;;2.63;;
18875;SDS011;9570;50.854;13.778;2023-03-20T07:33:47;3.93;;;2.37;;
18875;SDS011;9570;50.854;13.778;2023-03-20T07:36:12;3.27;;;2.50;;
18875;SDS011;9570;50.854;13.778;2023-03-20T07:38:38;4.43;;;2.60;;
18875;SDS011;9570;50.854;13.778;2023-03-20T07:41:03;3.10;;;2.57;;
18875;SDS011;9570;50.854;13.778;2023-03-20T07:43:29;4.27;;;2.70;;
18875;SDS011;9570;50.854;13.778;2023-03-20T07:45:54;3.00;;;2.70;;
18875;SDS011;9570;50.854;13.778;2023-03-20T07:48:20;4.57;;;2.77;;
18875;SDS011;9570;50.854;13.778;2023-03-20T07:50:45;3.40;;;3.10;;
18875;SDS011;9570;50.854;13.778;2023-03-20T07:53:11;3.33;;;3.00;;
18875;SDS011;9570;50.854;13.778;2023-03-20T07:55:36;4.17;;;3.10;;
18875;SDS011;9570;50.854;13.778;2023-03-20T07:58:02;3.13;;;2.90;;
18875;SDS011;9570;50.854;13.778;2023-03-20T08:00:27;4.57;;;3.20;;
18875;SDS011;9570;50.854;13.778;2023-03-20T08:02:53;5.07;;;3.50;;
18875;SDS011;9570;50.854;13.778;2023-03-20T08:05:20;3.93;;;3.13;;
18875;SDS011;9570;50.854;13.778;2023-03-20T08:07:46;4.07;;;3.17;;
18875;SDS011;9570;50.854;13.778;2023-03-20T08:10:12;3.47;;;3.03;;
18875;SDS011;9570;50.854;13.778;2023-03-20T08:12:37;5.80;;;3.10;;
18875;SDS011;9570;50.854;13.778;2023-03-20T08:15:03;3.43;;;3.13;;
18875;SDS011;9570;50.854;13.778;2023-03-20T08:17:28;3.80;;;3.40;;
18875;SDS011;9570;50.854;13.778;2023-03-20T08:19:54;3.87;;;3.47;;
18875;SDS011;9570;50.854;13.778;2023-03-20T08:22:20;6.53;;;2.97;;
18875;SDS011;9570;50.854;13.778;2023-03-20T08:24:45;4.17;;;3.30;;
18875;SDS011;9570;50.854;13.778;2023-03-20T08:27:11;3.73;;;3.33;;
18875;SDS011;9570;50.854;13.778;2023-03-20T08:29:36;4.23;;;3.60;;
18875;SDS011;9570;50.854;13.778;2023-03-20T08:32:02;4.17;;;3.63;;
18875;SDS011;9570;50.854;13.778;2023-03-20T08:34:29;4.43;;;3.33;;
18875;SDS011;9570;50.854;13.778;2023-03-20T08:36:56;5.10;;;3.93;;
18875;SDS011;9570;50.854;13.778;2023-03-20T08:39:21;6.07;;;4.30;;
18875;SDS011;9570;50.854;13.778;2023-03-20T08:41:47;4.50;;;3.63;;
18875;SDS011;9570;50.854;13.778;2023-03-20T08:44:14;4.20;;;3.80;;
18875;SDS011;9570;50.854;13.778;2023-03-20T08:46:40;4.20;;;3.60;;
18875;SDS011;9570;50.854;13.778;2023-03-20T08:49:07;5.27;;;3.47;;
18875;SDS011;9570;50.854;13.778;2023-03-20T08:51:33;4.00;;;3.30;;
18875;SDS011;9570;50.854;13.778;2023-03-20T08:53:58;4.60;;;3.53;;
18875;SDS011;9570;50.854;13.778;2023-03-20T08:56:24;4.33;;;3.90;;
18875;SDS011;9570;50.854;13.778;2023-03-20T08:58:49;4.80;;;3.80;;
18875;SDS011;9570;50.854;13.778;2023-03-20T09:01:17;4.83;;;4.30;;
18875;SDS011;9570;50.854;13.778;2023-03-20T09:03:43;4.50;;;3.70;;
18875;SDS011;9570;50.854;13.778;2023-03-20T09:06:09;4.43;;;4.03;;
18875;SDS011;9570;50.854;13.778;2023-03-20T09:08:35;5.17;;;4.50;;
18875;SDS011;9570;50.854;13.778;2023-03-20T09:11:00;5.83;;;4.97;;
18875;SDS011;9570;50.854;13.778;2023-03-20T09:13:26;7.83;;;6.40;;
18875;SDS011;9570;50.854;13.778;2023-03-20T09:15:52;7.37;;;5.63;;
18875;SDS011;9570;50.854;13.778;2023-03-20T09:18:18;6.70;;;6.10;;
18875;SDS011;9570;50.854;13.778;2023-03-20T09:20:45;7.03;;;6.13;;
18875;SDS011;9570;50.854;13.778;2023-03-20T09:23:11;9.37;;;6.23;;
18875;SDS011;9570;50.854;13.778;2023-03-20T09:25:37;10.97;;;6.60;;
18875;SDS011;9570;50.854;13.778;2023-03-20T09:28:02;7.53;;;6.57;;
18875;SDS011;9570;50.854;13.778;2023-03-20T09:30:28;10.27;;;7.87;;
18875;SDS011;9570;50.854;13.778;2023-03-20T09:32:53;11.53;;;10.33;;
18875;SDS011;9570;50.854;13.778;2023-03-20T09:35:19;10.30;;;9.20;;
18875;SDS011;9570;50.854;13.778;2023-03-20T09:37:45;10.90;;;8.93;;
18875;SDS011;9570;50.854;13.778;2023-03-20T09:40:27;9.67;;;8.67;;
18875;SDS011;9570;50.854;13.778;2023-03-20T09:43:04;10.40;;;9.13;;
18875;SDS011;9570;50.854;13.778;2023-03-20T09:45:49;10.50;;;8.27;;
18875;SDS011;9570;50.854;13.778;2023-03-20T09:48:39;10.80;;;9.27;;
18875;SDS011;9570;50.854;13.778;2023-03-20T09:51:16;8.77;;;7.70;;
18875;SDS011;9570;50.854;13.778;2023-03-20T09:53:54;9.87;;;8.83;;
18875;SDS011;9570;50.854;13.778;2023-03-20T09:56:25;10.73;;;7.53;;
18875;SDS011;9570;50.854;13.778;2023-03-20T09:58:53;8.87;;;7.97;;
18875;SDS011;9570;50.854;13.778;2023-03-20T10:01:21;8.60;;;7.80;;
18875;SDS011;9570;50.854;13.778;2023-03-20T10:03:52;8.93;;;8.03;;
18875;SDS011;9570;50.854;13.778;2023-03-20T10:06:21;9.37;;;8.20;;
18875;SDS011;9570;50.854;13.778;2023-03-20T10:08:47;9.03;;;7.63;;
18875;SDS011;9570;50.854;13.778;2023-03-20T10:13:51;8.77;;;7.33;;
18875;SDS011;9570;50.854;13.778;2023-03-20T10:16:43;8.97;;;7.70;;
18875;SDS011;9570;50.854;13.778;2023-03-20T10:19:29;8.60;;;7.70;;
18875;SDS011;9570;50.854;13.778;2023-03-20T10:24:58;7.53;;;6.83;;
18875;SDS011;9570;50.854;13.778;2023-03-20T10:27:37;6.50;;;5.80;;
18875;SDS011;9570;50.854;13.778;2023-03-20T10:36:03;5.30;;;4.70;;
18875;SDS011;9570;50.854;13.778;2023-03-20T10:38:52;4.07;;;3.70;;
18875;SDS011;9570;50.854;13.778;2023-03-20T10:41:36;4.47;;;4.07;;
18875;SDS011;9570;50.854;13.778;2023-03-20T10:44:08;4.63;;;4.23;;
18875;SDS011;9570;50.854;13.778;2023-03-20T10:46:43;4.70;;;4.30;;
18875;SDS011;9570;50.854;13.778;2023-03-20T10:49:13;6.37;;;5.23;;
18875;SDS011;9570;50.854;13.778;2023-03-20T10:51:46;5.83;;;5.20;;
18875;SDS011;9570;50.854;13.778;2023-03-20T10:54:30;6.00;;;5.40;;
18875;SDS011;9570;50.854;13.778;2023-03-20T10:57:06;6.00;;;5.40;;
18875;SDS011;9570;50.854;13.778;2023-03-20T10:59:46;5.97;;;4.77;;
18875;SDS011;9570;50.854;13.778;2023-03-20T11:02:14;5.60;;;4.97;;
18875;SDS011;9570;50.854;13.778;2023-03-20T11:04:41;5.30;;;4.80;;
18875;SDS011;9570;50.854;13.778;2023-03-20T11:07:12;5.70;;;5.20;;
18875;SDS011;9570;50.854;13.778;2023-03-20T11:10:05;6.07;;;4.83;;
18875;SDS011;9570;50.854;13.778;2023-03-20T11:12:35;5.43;;;4.93;;
18875;SDS011;9570;50.854;13.778;2023-03-20T11:15:20;5.30;;;4.80;;
18875;SDS011;9570;50.854;13.778;2023-03-20T11:17:56;5.80;;;5.27;;
18875;SDS011;9570;50.854;13.778;2023-03-20T11:20:26;5.53;;;4.93;;
18875;SDS011;9570;50.854;13.778;2023-03-20T11:23:05;6.30;;;4.93;;
18875;SDS011;9570;50.854;13.778;2023-03-20T11:25:33;6.13;;;5.23;;
18875;SDS011;9570;50.854;13.778;2023-03-20T11:31:28;6.17;;;5.10;;
18875;SDS011;9570;50.854;13.778;2023-03-20T11:34:09;7.57;;;5.30;;
18875;SDS011;9570;50.854;13.778;2023-03-20T11:36:39;6.57;;;5.60;;
18875;SDS011;9570;50.854;13.778;2023-03-20T11:39:12;7.03;;;6.33;;
18875;SDS011;9570;50.854;13.778;2023-03-20T11:41:46;6.10;;;5.60;;
18875;SDS011;9570;50.854;13.778;2023-03-20T11:44:48;6.27;;;5.30;;
18875;SDS011;9570;50.854;13.778;2023-03-20T11:47:14;7.33;;;5.00;;
18875;SDS011;9570;50.854;13.778;2023-03-20T11:49:49;6.13;;;4.80;;
18875;SDS011;9570;50.854;13.778;2023-03-20T11:52:20;8.00;;;4.97;;
18875;SDS011;9570;50.854;13.778;2023-03-20T11:54:49;5.57;;;4.97;;
18875;SDS011;9570;50.854;13.778;2023-03-20T11:57:59;6.37;;;5.67;;
18875;SDS011;9570;50.854;13.778;2023-03-20T12:02:34;7.20;;;6.33;;
18875;SDS011;9570;50.854;13.778;2023-03-20T12:05:01;8.20;;;5.37;;
18875;SDS011;9570;50.854;13.778;2023-03-20T12:07:41;6.97;;;5.57;;
18875;SDS011;9570;50.854;13.778;2023-03-20T12:10:11;6.60;;;5.90;;
18875;SDS011;9570;50.854;13.778;2023-03-20T12:15:16;8.97;;;7.37;;
18875;SDS011;9570;50.854;13.778;2023-03-20T12:17:50;8.33;;;7.40;;
18875;SDS011;9570;50.854;13.778;2023-03-20T12:22:48;8.77;;;7.80;;
18875;SDS011;9570;50.854;13.778;2023-03-20T12:25:34;10.30;;;8.70;;
18875;SDS011;9570;50.854;13.778;2023-03-20T12:28:05;11.53;;;8.07;;
18875;SDS011;9570;50.854;13.778;2023-03-20T12:31:00;10.93;;;9.30;;
18875;SDS011;9570;50.854;13.778;2023-03-20T12:36:17;9.90;;;8.83;;
18875;SDS011;9570;50.854;13.778;2023-03-20T12:38:53;16.90;;;9.77;;
18875;SDS011;9570;50.854;13.778;2023-03-20T12:41:23;10.47;;;9.37;;
18875;SDS011;9570;50.854;13.778;2023-03-20T12:44:12;14.03;;;10.77;;
18875;SDS011;9570;50.854;13.778;2023-03-20T12:52:51;10.70;;;9.60;;
18875;SDS011;9570;50.854;13.778;2023-03-20T12:58:35;12.73;;;9.90;;
18875;SDS011;9570;50.854;13.778;2023-03-20T13:01:20;5.90;;;4.63;;
18875;SDS011;9570;50.854;13.778;2023-03-20T13:08:59;5.10;;;3.23;;
18875;SDS011;9570;50.854;13.778;2023-03-20T13:11:55;5.50;;;3.63;;
18875;SDS011;9570;50.854;13.778;2023-03-20T13:17:38;8.37;;;6.87;;
18875;SDS011;9570;50.854;13.778;2023-03-20T13:25:35;9.20;;;7.00;;
18875;SDS011;9570;50.854;13.778;2023-03-20T13:28:21;7.53;;;5.97;;
18875;SDS011;9570;50.854;13.778;2023-03-20T13:31:12;8.80;;;6.00;;
18875;SDS011;9570;50.854;13.778;2023-03-20T13:36:29;6.27;;;4.90;;
18875;SDS011;9570;50.854;13.778;2023-03-20T13:39:17;6.50;;;5.60;;
18875;SDS011;9570;50.854;13.778;2023-03-20T13:41:43;6.23;;;4.97;;
18875;SDS011;9570;50.854;13.778;2023-03-20T13:44:10;5.87;;;4.90;;
18875;SDS011;9570;50.854;13.778;2023-03-20T13:46:40;6.07;;;5.33;;
18875;SDS011;9570;50.854;13.778;2023-03-20T13:49:15;7.43;;;5.50;;
18875;SDS011;9570;50.854;13.778;2023-03-20T13:51:55;7.63;;;6.13;;
18875;SDS011;9570;50.854;13.778;2023-03-20T13:54:36;6.57;;;5.60;;
18875;SDS011;9570;50.854;13.778;2023-03-20T14:00:00;8.13;;;6.13;;
18875;SDS011;9570;50.854;13.778;2023-03-20T14:05:41;7.20;;;6.40;;
18875;SDS011;9570;50.854;13.778;2023-03-20T14:11:11;7.93;;;6.10;;
18875;SDS011;9570;50.854;13.778;2023-03-20T14:16:43;3.60;;;3.30;;
18875;SDS011;9570;50.854;13.778;2023-03-20T14:19:18;4.10;;;3.60;;
18875;SDS011;9570;50.854;13.778;2023-03-20T14:21:49;3.37;;;2.40;;
18875;SDS011;9570;50.854;13.778;2023-03-20T14:24:17;2.67;;;2.00;;
18875;SDS011;9570;50.854;13.778;2023-03-20T14:27:02;5.43;;;1.60;;
18875;SDS011;9570;50.854;13.778;2023-03-20T14:42:52;1.53;;;1.43;;
18875;SDS011;9570;50.854;13.778;2023-03-20T14:48:08;2.13;;;1.50;;
18875;SDS011;9570;50.854;13.778;2023-03-20T14:51:07;2.00;;;1.73;;
18875;SDS011;9570;50.854;13.778;2023-03-20T14:56:45;1.67;;;1.57;;
18875;SDS011;9570;50.854;13.778;2023-03-20T14:59:16;1.50;;;1.40;;
18875;SDS011;9570;50.854;13.778;2023-03-20T15:01:44;3.17;;;1.70;;
18875;SDS011;9570;50.854;13.778;2023-03-20T15:04:38;1.50;;;1.40;;
18875;SDS011;9570;50.854;13.778;2023-03-20T15:07:09;2.13;;;1.50;;
18875;SDS011;9570;50.854;13.778;2023-03-20T15:09:40;2.30;;;1.60;;
18875;SDS011;9570;50.854;13.778;2023-03-20T15:12:08;1.97;;;1.80;;
18875;SDS011;9570;50.854;13.778;2023-03-20T15:14:39;1.93;;;1.73;;
18875;SDS011;9570;50.854;13.778;2023-03-20T15:17:15;2.53;;;2.13;;
18875;SDS011;9570;50.854;13.778;2023-03-20T15:19:42;2.50;;;2.20;;
18875;SDS011;9570;50.854;13.778;2023-03-20T15:22:18;2.40;;;2.20;;
18875;SDS011;9570;50.854;13.778;2023-03-20T15:24:51;3.17;;;2.53;;
18875;SDS011;9570;50.854;13.778;2023-03-20T15:27:19;4.70;;;2.43;;
18875;SDS011;9570;50.854;13.778;2023-03-20T15:29:51;3.37;;;2.70;;
18875;SDS011;9570;50.854;13.778;2023-03-20T15:32:19;4.33;;;3.10;;
18875;SDS011;9570;50.854;13.778;2023-03-20T15:34:45;2.90;;;2.60;;
18875;SDS011;9570;50.854;13.778;2023-03-20T15:37:16;3.90;;;2.97;;
18875;SDS011;9570;50.854;13.778;2023-03-20T15:39:47;4.37;;;3.57;;
18875;SDS011;9570;50.854;13.778;2023-03-20T15:42:16;3.40;;;3.10;;
18875;SDS011;9570;50.854;13.778;2023-03-20T15:44:46;3.83;;;3.23;;
18875;SDS011;9570;50.854;13.778;2023-03-20T15:47:14;3.03;;;2.73;;
18875;SDS011;9570;50.854;13.778;2023-03-20T15:49:47;3.93;;;3.10;;
18875;SDS011;9570;50.854;13.778;2023-03-20T15:52:47;4.30;;;3.30;;
18875;SDS011;9570;50.854;13.778;2023-03-20T15:55:11;3.50;;;3.13;;
18875;SDS011;9570;50.854;13.778;2023-03-20T15:57:41;5.03;;;3.67;;
18875;SDS011;9570;50.854;13.778;2023-03-20T16:00:13;4.10;;;3.37;;
18875;SDS011;9570;50.854;13.778;2023-03-20T16:02:39;6.67;;;3.47;;
18875;SDS011;9570;50.854;13.778;2023-03-20T16:05:09;4.03;;;3.50;;
18875;SDS011;9570;50.854;13.778;2023-03-20T16:07:37;4.63;;;3.57;;
18875;SDS011;9570;50.854;13.778;2023-03-20T16:10:03;4.07;;;3.50;;
18875;SDS011;9570;50.854;13.778;2023-03-20T16:12:47;6.03;;;4.10;;
18875;SDS011;9570;50.854;13.778;2023-03-20T16:15:15;4.73;;;3.70;;
18875;SDS011;9570;50.854;13.778;2023-03-20T16:17:42;4.33;;;3.53;;
18875;SDS011;9570;50.854;13.778;2023-03-20T16:20:15;4.03;;;3.63;;
18875;SDS011;9570;50.854;13.778;2023-03-20T16:22:42;6.23;;;5.40;;
18875;SDS011;9570;50.854;13.778;2023-03-20T16:25:11;4.73;;;3.83;;
18875;SDS011;9570;50.854;13.778;2023-03-20T16:27:40;4.27;;;3.17;;
18875;SDS011;9570;50.854;13.778;2023-03-20T16:30:11;3.43;;;3.13;;
18875;SDS011;9570;50.854;13.778;2023-03-20T16:32:50;4.10;;;3.30;;
18875;SDS011;9570;50.854;13.778;2023-03-20T16:35:27;3.33;;;3.03;;
18875;SDS011;9570;50.854;13.778;2023-03-20T16:37:59;2.90;;;2.57;;
18875;SDS011;9570;50.854;13.778;2023-03-20T16:42:51;2.90;;;2.67;;
18875;SDS011;9570;50.854;13.778;2023-03-20T16:45:20;3.60;;;2.90;;
18875;SDS011;9570;50.854;13.778;2023-03-20T16:47:49;3.17;;;2.70;;
18875;SDS011;9570;50.854;13.778;2023-03-20T16:50:17;3.83;;;3.07;;
18875;SDS011;9570;50.854;13.778;2023-03-20T16:52:51;3.37;;;2.83;;
18875;SDS011;9570;50.854;13.778;2023-03-20T16:55:23;3.10;;;2.80;;
18875;SDS011;9570;50.854;13.778;2023-03-20T16:57:52;4.63;;;2.90;;
18875;SDS011;9570;50.854;13.778;2023-03-20T17:00:28;3.50;;;2.90;;
18875;SDS011;9570;50.854;13.778;2023-03-20T17:03:00;4.87;;;3.00;;
18875;SDS011;9570;50.854;13.778;2023-03-20T17:05:40;3.50;;;3.10;;
18875;SDS011;9570;50.854;13.778;2023-03-20T17:08:13;3.53;;;2.90;;